Time;durP1;ratioP1;P1;durP2;ratioP2;P2;SDS_P1;SDS_P2;PMS_P1;PMS_P2;Temp;Humidity;BMP_temperature;BMP_pressure;BME280_temperature;BME280_humidity;BME280_pressure;Samples;Min_cycle;Max_cycle;Signal;HPM_P1;HPM_P2
2022/01/05 00:02:15;;;;;;;19.75;2.00;;;1.50;99.90;;;;;;4974941;28;20029;-84
2022/01/05 00:04:41;;;;;;;8.75;1.58;;;1.50;99.90;;;;;;4986638;28;20048;-84
2022/01/05 00:07:07;;;;;;;16.27;3.08;;;1.50;99.90;;;;;;4985284;28;20636;-84
2022/01/05 00:09:33;;;;;;;17.88;2.38;;;1.40;99.90;;;;;;4993555;28;20468;-84
2022/01/05 00:12:00;;;;;;;12.90;1.85;;;1.40;99.90;;;;;;4996820;28;20055;-83
2022/01/05 00:14:26;;;;;;;11.27;1.65;;;1.40;99.90;;;;;;5008661;28;20585;-84
2022/01/05 00:16:51;;;;;;;19.15;2.28;;;1.40;99.90;;;;;;5003946;28;20037;-84
2022/01/05 00:19:17;;;;;;;11.68;2.25;;;1.40;99.90;;;;;;4999207;28;20049;-84
2022/01/05 00:21:43;;;;;;;13.18;2.30;;;1.40;99.90;;;;;;4988268;28;20058;-83
2022/01/05 00:24:09;;;;;;;17.73;2.42;;;1.40;99.90;;;;;;4983717;28;20448;-83
2022/01/05 00:26:35;;;;;;;19.30;2.20;;;1.40;99.90;;;;;;4986294;28;20099;-84
2022/01/05 00:29:02;;;;;;;18.27;1.92;;;1.40;99.90;;;;;;5017407;28;20033;-83
2022/01/05 00:31:28;;;;;;;18.60;2.03;;;1.40;99.90;;;;;;4984599;28;20045;-82
2022/01/05 00:33:54;;;;;;;15.00;2.50;;;1.50;99.90;;;;;;4975610;28;20056;-84
2022/01/05 00:36:20;;;;;;;19.05;2.15;;;1.50;99.90;;;;;;5004195;28;20060;-82
2022/01/05 00:38:47;;;;;;;20.35;2.15;;;1.60;99.90;;;;;;5018660;28;20177;-84
2022/01/05 00:41:14;;;;;;;13.68;1.35;;;1.70;99.90;;;;;;4989351;28;20064;-83
2022/01/05 00:43:40;;;;;;;16.95;1.80;;;1.70;99.90;;;;;;4988021;28;20091;-85
2022/01/05 00:46:06;;;;;;;15.07;1.83;;;1.80;99.90;;;;;;5001127;28;20041;-85
2022/01/05 00:48:35;;;;;;;13.02;1.70;;;1.90;99.90;;;;;;5006283;28;20490;-84
2022/01/05 00:51:06;;;;;;;11.57;2.42;;;2.00;99.90;;;;;;5009269;28;20046;-84
2022/01/05 00:53:33;;;;;;;14.38;1.90;;;2.00;99.90;;;;;;4987488;28;20079;-83
2022/01/05 00:55:59;;;;;;;16.00;2.13;;;2.10;99.90;;;;;;4987447;28;20054;-84
2022/01/05 00:58:25;;;;;;;13.40;1.75;;;2.10;99.90;;;;;;4998723;28;20041;-83
2022/01/05 01:00:51;;;;;;;7.88;1.38;;;2.10;99.90;;;;;;4995612;28;20530;-83
2022/01/05 01:03:17;;;;;;;15.60;1.20;;;2.10;99.90;;;;;;4983294;28;20382;-82
2022/01/05 01:05:43;;;;;;;12.45;1.90;;;2.10;99.90;;;;;;5004072;28;20059;-83
2022/01/05 01:08:09;;;;;;;10.00;1.92;;;2.10;99.90;;;;;;4977996;28;20039;-84
2022/01/05 01:10:35;;;;;;;11.57;1.83;;;2.00;99.90;;;;;;4988893;28;20043;-84
2022/01/05 01:13:01;;;;;;;19.60;1.95;;;2.00;99.90;;;;;;4982053;28;20411;-83
2022/01/05 01:15:27;;;;;;;10.77;1.80;;;1.90;99.90;;;;;;4983793;28;20461;-83
2022/01/05 01:17:52;;;;;;;13.90;1.60;;;1.90;99.90;;;;;;4984293;28;20045;-83
2022/01/05 01:20:20;;;;;;;14.77;1.50;;;1.80;99.90;;;;;;5004809;28;20045;-83
2022/01/05 01:22:46;;;;;;;10.75;1.52;;;1.70;99.90;;;;;;4994516;28;20365;-83
2022/01/05 01:25:12;;;;;;;12.18;1.88;;;1.70;99.90;;;;;;5002857;28;20071;-85
2022/01/05 01:27:40;;;;;;;9.00;1.80;;;1.70;99.90;;;;;;5000232;28;20045;-82
2022/01/05 01:30:07;;;;;;;11.27;1.50;;;1.70;99.90;;;;;;4992095;28;20068;-84
2022/01/05 01:32:33;;;;;;;15.77;2.22;;;1.70;99.90;;;;;;5002124;28;20555;-83
2022/01/05 01:34:59;;;;;;;9.52;2.20;;;1.70;99.90;;;;;;5019916;28;20041;-84
2022/01/05 01:37:25;;;;;;;17.02;1.25;;;1.70;99.90;;;;;;5003781;28;20047;-83
2022/01/05 01:39:51;;;;;;;10.27;1.77;;;1.80;99.90;;;;;;4997670;28;20310;-83
2022/01/05 01:42:16;;;;;;;16.65;1.48;;;1.70;99.90;;;;;;4990724;28;20030;-85
2022/01/05 01:44:43;;;;;;;10.48;1.67;;;1.80;99.90;;;;;;4972566;28;20045;-85
2022/01/05 01:47:09;;;;;;;8.43;1.60;;;1.90;99.90;;;;;;5001025;28;20099;-83
2022/01/05 01:49:35;;;;;;;15.73;1.88;;;1.80;99.90;;;;;;4993004;28;20045;-85
2022/01/05 01:52:01;;;;;;;9.52;1.50;;;1.80;99.90;;;;;;5005627;28;20107;-84
2022/01/05 01:54:28;;;;;;;9.13;2.25;;;1.80;99.90;;;;;;4980384;28;20370;-84
2022/01/05 01:56:55;;;;;;;11.60;1.65;;;1.90;99.90;;;;;;4985204;28;20656;-84
2022/01/05 01:59:21;;;;;;;10.25;1.55;;;1.90;99.90;;;;;;4991948;28;20582;-83
2022/01/05 02:01:47;;;;;;;8.82;1.30;;;1.90;99.90;;;;;;4988936;28;20171;-83
2022/01/05 02:04:13;;;;;;;12.15;1.45;;;1.90;99.90;;;;;;4991718;28;20156;-83
2022/01/05 02:06:38;;;;;;;13.98;1.50;;;1.90;99.90;;;;;;5011977;28;20051;-84
2022/01/05 02:09:05;;;;;;;12.73;1.73;;;2.00;99.90;;;;;;5014063;28;20041;-84
2022/01/05 02:11:32;;;;;;;12.73;1.67;;;2.00;99.90;;;;;;4985063;28;20556;-83
2022/01/05 02:13:57;;;;;;;14.75;1.63;;;2.00;99.90;;;;;;5009796;28;20080;-84
2022/01/05 02:16:30;;;;;;;20.45;1.90;;;2.00;99.90;;;;;;5000043;28;20039;-84
2022/01/05 02:19:00;;;;;;;10.38;1.67;;;1.90;99.90;;;;;;5036648;28;21090;-83
2022/01/05 02:21:28;;;;;;;12.50;1.40;;;2.00;99.90;;;;;;4994697;28;20060;-83
2022/01/05 02:23:54;;;;;;;9.27;1.58;;;2.00;99.90;;;;;;5001195;28;20052;-84
2022/01/05 02:26:21;;;;;;;12.98;2.25;;;2.00;99.90;;;;;;4976300;28;21028;-85
2022/01/05 02:28:47;;;;;;;12.48;1.67;;;2.00;99.90;;;;;;5003052;28;20060;-84
2022/01/05 02:31:13;;;;;;;8.95;2.20;;;2.00;99.90;;;;;;5008309;28;20780;-85
2022/01/05 02:33:40;;;;;;;12.02;1.92;;;2.00;99.90;;;;;;4982039;28;20037;-85
2022/01/05 02:36:11;;;;;;;8.43;1.42;;;2.00;99.90;;;;;;4998190;28;20040;-88
2022/01/05 02:38:38;;;;;;;17.60;1.90;;;2.00;99.90;;;;;;4991435;28;20404;-85
2022/01/05 02:41:09;;;;;;;8.20;1.40;;;2.00;99.90;;;;;;4985603;28;20520;-85
2022/01/05 02:43:36;;;;;;;16.08;1.80;;;2.00;99.90;;;;;;5018689;28;20708;-85
2022/01/05 02:46:03;;;;;;;13.23;2.00;;;2.00;99.90;;;;;;5008729;28;20099;-83
2022/01/05 02:48:30;;;;;;;13.43;1.60;;;2.00;99.90;;;;;;5017080;28;20045;-84
2022/01/05 02:50:57;;;;;;;16.75;2.13;;;2.00;99.90;;;;;;4991423;28;20577;-84
2022/01/05 02:53:24;;;;;;;16.95;2.15;;;2.00;99.90;;;;;;4999163;28;20072;-85
2022/01/05 02:55:51;;;;;;;23.70;1.90;;;2.00;99.90;;;;;;4999314;28;20731;-83
2022/01/05 02:58:18;;;;;;;13.75;2.38;;;2.10;99.90;;;;;;5003285;28;20059;-84
2022/01/05 03:00:44;;;;;;;9.20;1.30;;;2.10;99.90;;;;;;4981513;28;20045;-86
2022/01/05 03:03:11;;;;;;;14.32;1.90;;;2.10;99.90;;;;;;5006715;28;20051;-83
2022/01/05 03:05:36;;;;;;;14.35;2.50;;;2.10;99.90;;;;;;5022197;28;20348;-86
2022/01/05 03:08:03;;;;;;;19.77;2.10;;;2.10;99.90;;;;;;4969902;28;20167;-84
2022/01/05 03:10:29;;;;;;;12.32;1.83;;;2.10;99.90;;;;;;4990094;28;20036;-85
2022/01/05 03:12:55;;;;;;;25.67;2.40;;;2.10;99.90;;;;;;4983670;28;20312;-85
2022/01/05 03:15:21;;;;;;;13.38;2.22;;;2.10;99.90;;;;;;4995862;28;20049;-85
2022/01/05 03:17:47;;;;;;;14.60;2.15;;;2.10;99.90;;;;;;5004154;28;20053;-83
2022/01/05 03:20:14;;;;;;;13.65;2.05;;;2.10;99.90;;;;;;5016347;28;20079;-84
2022/01/05 03:22:40;;;;;;;16.77;2.00;;;2.10;99.90;;;;;;4992253;28;20068;-84
2022/01/05 03:25:08;;;;;;;14.30;2.20;;;2.20;99.90;;;;;;4999369;28;20721;-84
2022/01/05 03:27:34;;;;;;;15.13;2.13;;;2.20;99.90;;;;;;4969990;28;20237;-83
2022/01/05 03:30:00;;;;;;;11.32;2.00;;;2.20;99.90;;;;;;4969798;28;20040;-84
2022/01/05 03:32:34;;;;;;;19.48;2.63;;;2.20;99.90;;;;;;5023687;28;20037;-85
2022/01/05 03:35:00;;;;;;;19.15;2.08;;;2.10;99.90;;;;;;4993040;28;20076;-83
2022/01/05 03:37:26;;;;;;;13.82;2.33;;;2.20;99.90;;;;;;4972146;28;20131;-82
2022/01/05 03:39:51;;;;;;;21.95;2.35;;;2.20;99.90;;;;;;5007520;28;20055;-83
2022/01/05 03:42:17;;;;;;;11.23;1.95;;;2.20;99.90;;;;;;4990098;28;20036;-83
2022/01/05 03:44:43;;;;;;;15.55;2.70;;;2.20;99.90;;;;;;5004505;28;20041;-85
2022/01/05 03:47:09;;;;;;;17.17;1.98;;;2.30;99.90;;;;;;4993093;28;20284;-84
2022/01/05 03:49:35;;;;;;;15.65;2.17;;;2.30;99.90;;;;;;4983202;28;20049;-83
2022/01/05 03:52:03;;;;;;;23.88;2.70;;;2.30;99.90;;;;;;5007769;28;20128;-86
2022/01/05 03:54:29;;;;;;;19.40;2.38;;;2.30;99.90;;;;;;4974009;28;20045;-85
2022/01/05 03:56:54;;;;;;;15.38;2.28;;;2.30;99.90;;;;;;4992060;28;20055;-85
2022/01/05 03:59:21;;;;;;;20.83;2.42;;;2.40;99.90;;;;;;4977806;28;20041;-82
2022/01/05 04:01:47;;;;;;;18.98;2.15;;;2.40;99.90;;;;;;4994470;28;20059;-87
2022/01/05 04:04:13;;;;;;;15.18;2.28;;;2.40;99.90;;;;;;5001952;28;20044;-86
2022/01/05 04:06:39;;;;;;;18.80;2.55;;;2.50;99.90;;;;;;4988681;28;20045;-86
2022/01/05 04:09:05;;;;;;;20.80;1.90;;;2.50;99.90;;;;;;4993438;28;20036;-85
2022/01/05 04:11:30;;;;;;;15.43;2.65;;;2.50;99.90;;;;;;4996621;28;20538;-82
2022/01/05 04:13:56;;;;;;;17.60;2.33;;;2.60;99.90;;;;;;5007389;28;20472;-84
2022/01/05 04:16:22;;;;;;;16.40;2.33;;;2.60;99.90;;;;;;4992671;28;20500;-85
2022/01/05 04:18:48;;;;;;;13.52;3.38;;;2.60;99.90;;;;;;4973116;28;20048;-82
2022/01/05 04:21:13;;;;;;;17.10;2.72;;;2.60;99.90;;;;;;4974163;28;20065;-86
2022/01/05 04:23:39;;;;;;;14.63;2.17;;;2.70;99.90;;;;;;4975443;28;20033;-85
2022/01/05 04:26:05;;;;;;;16.58;2.47;;;2.70;99.90;;;;;;4989655;28;20039;-85
2022/01/05 04:28:31;;;;;;;24.38;2.25;;;2.70;99.90;;;;;;4994982;28;20041;-83
2022/01/05 04:30:57;;;;;;;15.88;2.65;;;2.70;99.90;;;;;;5012095;28;20372;-84
2022/01/05 04:33:23;;;;;;;15.25;2.25;;;2.70;99.90;;;;;;4995847;28;20042;-86
2022/01/05 04:35:48;;;;;;;19.70;2.90;;;2.70;99.90;;;;;;5008625;28;20800;-86
2022/01/05 04:38:14;;;;;;;21.63;2.40;;;2.80;99.90;;;;;;4976402;28;20044;-84
2022/01/05 04:40:40;;;;;;;19.17;2.28;;;2.90;99.90;;;;;;4978414;28;20164;-86
2022/01/05 04:43:06;;;;;;;19.00;2.25;;;3.10;99.90;;;;;;4976848;28;20073;-83
2022/01/05 04:45:32;;;;;;;13.40;2.03;;;3.00;99.90;;;;;;4981053;28;20046;-85
2022/01/05 04:47:59;;;;;;;14.70;2.50;;;3.20;99.90;;;;;;4981965;28;20038;-86
2022/01/05 04:50:28;;;;;;;17.17;2.30;;;3.20;99.90;;;;;;5000356;28;20290;-86
2022/01/05 04:53:13;;;;;;;13.45;1.95;;;3.20;99.90;;;;;;4989608;28;20041;-85
2022/01/05 04:55:42;;;;;;;14.35;1.98;;;3.20;99.90;;;;;;4997994;28;20156;-83
2022/01/05 04:58:15;;;;;;;20.70;2.85;;;3.10;99.90;;;;;;4993352;28;20313;-84
2022/01/05 05:00:41;;;;;;;9.07;2.35;;;3.10;99.90;;;;;;5012406;28;20773;-84
2022/01/05 05:03:07;;;;;;;14.48;2.65;;;3.10;99.90;;;;;;5005501;28;20044;-85
2022/01/05 05:05:34;;;;;;;22.42;2.28;;;3.00;99.90;;;;;;4994158;28;20033;-83
2022/01/05 05:08:01;;;;;;;17.98;2.35;;;3.00;99.90;;;;;;4999598;28;20041;-83
2022/01/05 05:10:27;;;;;;;13.55;1.88;;;3.00;99.90;;;;;;4997705;28;20063;-83
2022/01/05 05:12:53;;;;;;;12.05;1.63;;;3.00;99.90;;;;;;4985257;28;20041;-84
2022/01/05 05:15:21;;;;;;;16.40;2.00;;;3.00;99.90;;;;;;4975248;28;20611;-86
2022/01/05 05:17:48;;;;;;;10.73;1.52;;;3.00;99.90;;;;;;5013577;28;20049;-85
2022/01/05 05:20:14;;;;;;;15.27;2.30;;;3.00;99.90;;;;;;4990024;28;20042;-83
2022/01/05 05:22:40;;;;;;;18.05;1.90;;;3.00;99.90;;;;;;4987168;28;20059;-83
2022/01/05 05:25:07;;;;;;;12.25;2.25;;;3.00;99.90;;;;;;4996038;28;20040;-84
2022/01/05 05:27:33;;;;;;;13.80;1.83;;;3.10;99.90;;;;;;5000810;28;20563;-83
2022/01/05 05:29:59;;;;;;;15.57;2.00;;;3.10;99.90;;;;;;5000101;28;20514;-85
2022/01/05 05:32:25;;;;;;;14.85;2.55;;;3.10;99.90;;;;;;5002573;28;20054;-82
2022/01/05 05:34:50;;;;;;;23.75;2.30;;;3.00;99.90;;;;;;4971177;28;20140;-85
2022/01/05 05:37:16;;;;;;;11.50;1.80;;;3.10;99.90;;;;;;4996447;28;20045;-86
2022/01/05 05:39:43;;;;;;;16.38;2.08;;;3.00;99.90;;;;;;4990120;28;20584;-84
2022/01/05 05:42:09;;;;;;;16.63;2.25;;;3.10;99.90;;;;;;4965074;28;20041;-85
2022/01/05 05:44:35;;;;;;;23.75;2.63;;;3.10;99.90;;;;;;5008714;28;20523;-85
2022/01/05 05:47:01;;;;;;;17.75;2.83;;;3.20;99.90;;;;;;5006133;28;20037;-85
2022/01/05 05:49:27;;;;;;;11.73;2.08;;;3.30;99.90;;;;;;4994940;28;20510;-84
2022/01/05 05:51:53;;;;;;;15.00;1.95;;;3.30;99.90;;;;;;4991728;28;20048;-85
2022/01/05 05:54:18;;;;;;;13.38;2.08;;;3.40;99.90;;;;;;4991276;28;20228;-86
2022/01/05 05:56:45;;;;;;;18.20;1.88;;;3.40;99.90;;;;;;4976307;28;20041;-86
2022/01/05 05:59:11;;;;;;;18.58;2.47;;;3.40;99.90;;;;;;5016749;28;20211;-85
2022/01/05 06:01:37;;;;;;;15.93;2.20;;;3.40;99.90;;;;;;4985009;28;20048;-83
2022/01/05 06:04:03;;;;;;;13.43;1.73;;;3.50;99.90;;;;;;5003372;28;20049;-86
2022/01/05 06:06:29;;;;;;;12.65;2.33;;;3.50;99.90;;;;;;5003271;28;20167;-83
2022/01/05 06:08:55;;;;;;;16.90;2.60;;;3.60;99.90;;;;;;4984849;28;20061;-86
2022/01/05 06:11:22;;;;;;;16.92;2.22;;;3.60;99.90;;;;;;5007219;28;20048;-87
2022/01/05 06:13:49;;;;;;;16.20;2.50;;;3.60;99.90;;;;;;4987233;28;20906;-85
2022/01/05 06:16:16;;;;;;;19.48;2.13;;;3.60;99.90;;;;;;4992745;28;20045;-85
2022/01/05 06:18:41;;;;;;;18.42;2.55;;;3.70;99.90;;;;;;4976612;28;20048;-82
2022/01/05 06:21:07;;;;;;;14.18;2.35;;;3.80;99.90;;;;;;4984511;28;20322;-86
2022/01/05 06:23:33;;;;;;;12.90;2.42;;;3.80;99.90;;;;;;4984731;28;20438;-87
2022/01/05 06:25:59;;;;;;;20.20;3.00;;;3.90;99.90;;;;;;4997606;28;20171;-86
2022/01/05 06:28:25;;;;;;;21.48;2.60;;;3.90;99.90;;;;;;4990185;28;20104;-85
2022/01/05 06:30:51;;;;;;;19.85;2.85;;;3.90;99.90;;;;;;4995616;28;20049;-83
2022/01/05 06:33:17;;;;;;;15.18;1.77;;;3.80;99.90;;;;;;4993628;28;20098;-87
2022/01/05 06:35:46;;;;;;;18.42;2.35;;;3.70;99.90;;;;;;5005031;28;20056;-86
2022/01/05 06:38:15;;;;;;;21.52;2.83;;;3.60;99.90;;;;;;4979596;28;20501;-85
2022/01/05 06:40:43;;;;;;;21.77;2.30;;;3.50;99.90;;;;;;5008923;28;20775;-86
2022/01/05 06:43:11;;;;;;;21.08;2.33;;;3.50;99.90;;;;;;5002283;28;20061;-89
2022/01/05 06:45:51;;;;;;;16.20;2.20;;;3.50;99.90;;;;;;4990054;28;20083;-88
2022/01/05 06:48:21;;;;;;;24.23;2.60;;;3.50;99.90;;;;;;5030208;28;20086;-89
2022/01/05 06:50:50;;;;;;;16.10;2.08;;;3.40;99.90;;;;;;4997768;28;20064;-84
2022/01/05 06:53:15;;;;;;;24.73;2.25;;;3.50;99.90;;;;;;4988354;28;20619;-85
2022/01/05 06:55:41;;;;;;;25.50;3.38;;;3.50;99.90;;;;;;5003202;28;20051;-86
2022/01/05 06:58:07;;;;;;;18.35;2.67;;;3.50;99.90;;;;;;5005971;28;20533;-82
2022/01/05 07:00:34;;;;;;;21.73;2.67;;;3.60;99.90;;;;;;4987382;28;20579;-90
2022/01/05 07:03:00;;;;;;;15.38;2.42;;;3.50;99.90;;;;;;4999982;28;20080;-84
2022/01/05 07:05:26;;;;;;;19.77;2.47;;;3.60;99.90;;;;;;4970034;28;20622;-87
2022/01/05 07:07:51;;;;;;;18.63;2.40;;;3.60;99.90;;;;;;5004344;28;20033;-83
2022/01/05 07:10:18;;;;;;;19.55;2.13;;;3.50;99.90;;;;;;5022320;28;20867;-87
2022/01/05 07:12:44;;;;;;;21.13;2.78;;;3.60;99.90;;;;;;4992217;28;20518;-89
2022/01/05 07:15:11;;;;;;;13.55;2.08;;;3.60;99.90;;;;;;5000377;28;20036;-86
2022/01/05 07:17:37;;;;;;;25.45;2.63;;;3.60;99.90;;;;;;5018379;28;20037;-89
2022/01/05 07:20:05;;;;;;;20.10;2.35;;;3.60;99.90;;;;;;5016321;28;20039;-88
2022/01/05 07:22:31;;;;;;;20.58;2.20;;;3.60;99.90;;;;;;5026594;28;20040;-85
2022/01/05 07:24:57;;;;;;;19.30;2.20;;;3.60;99.90;;;;;;5019957;28;20033;-88
2022/01/05 07:27:24;;;;;;;17.48;1.63;;;3.60;99.90;;;;;;4999336;28;20618;-87
2022/01/05 07:29:50;;;;;;;17.23;1.83;;;3.60;99.90;;;;;;5011357;28;20037;-88
2022/01/05 07:32:16;;;;;;;11.57;1.48;;;3.60;99.90;;;;;;5008670;28;20091;-89
2022/01/05 07:34:42;;;;;;;10.10;1.80;;;3.60;99.90;;;;;;4987070;28;20069;-85
2022/01/05 07:37:11;;;;;;;16.90;2.00;;;3.60;99.90;;;;;;5001532;28;20095;-88
2022/01/05 07:39:48;;;;;;;8.30;0.95;;;3.60;99.90;;;;;;5015151;28;20499;-91
2022/01/05 07:42:20;;;;;;;15.52;1.33;;;3.60;99.90;;;;;;5029757;28;20041;-88
2022/01/05 07:44:50;;;;;;;9.63;1.50;;;3.60;99.90;;;;;;5030743;28;20172;-87
2022/01/05 07:47:16;;;;;;;9.77;1.40;;;3.50;99.90;;;;;;5006629;28;20045;-88
2022/01/05 07:49:41;;;;;;;11.60;1.15;;;3.50;99.90;;;;;;5022995;28;20048;-85
2022/01/05 07:52:10;;;;;;;11.18;1.40;;;3.50;99.90;;;;;;4997344;28;20670;-86
2022/01/05 07:54:36;;;;;;;11.65;1.05;;;3.50;99.90;;;;;;5004404;28;20204;-88
2022/01/05 07:57:03;;;;;;;10.27;1.40;;;3.50;99.90;;;;;;5010961;28;20049;-87
2022/01/05 07:59:34;;;;;;;13.50;1.65;;;3.50;99.90;;;;;;5012620;28;20210;-85
2022/01/05 08:02:08;;;;;;;10.48;1.10;;;3.40;99.90;;;;;;5022856;28;20037;-86
2022/01/05 08:04:34;;;;;;;15.73;1.50;;;3.40;99.90;;;;;;4995277;28;20098;-84
2022/01/05 08:06:59;;;;;;;15.38;1.90;;;3.40;99.90;;;;;;5006224;28;20050;-86
2022/01/05 08:09:27;;;;;;;16.30;1.67;;;3.40;99.90;;;;;;5007722;28;21143;-87
2022/01/05 08:11:53;;;;;;;12.70;1.75;;;3.30;99.90;;;;;;5007913;28;20068;-87
2022/01/05 08:14:19;;;;;;;12.13;1.50;;;3.40;99.90;;;;;;4983926;28;20891;-86
2022/01/05 08:16:45;;;;;;;12.05;1.92;;;3.50;99.90;;;;;;5011416;28;20365;-87
2022/01/05 08:19:11;;;;;;;10.60;2.15;;;3.50;99.90;;;;;;5005924;28;20369;-85
2022/01/05 08:21:37;;;;;;;15.80;2.03;;;3.60;99.90;;;;;;4990812;28;20071;-89
2022/01/05 08:24:04;;;;;;;21.65;2.10;;;3.60;99.90;;;;;;5010914;28;20078;-87
2022/01/05 08:26:30;;;;;;;20.55;2.35;;;3.70;99.90;;;;;;5003304;28;20041;-87
2022/01/05 08:28:56;;;;;;;25.45;2.40;;;3.70;99.90;;;;;;4989532;28;20038;-86
2022/01/05 08:31:23;;;;;;;17.38;1.75;;;3.80;99.90;;;;;;4997701;28;20037;-86
2022/01/05 08:33:50;;;;;;;16.08;1.98;;;3.80;99.90;;;;;;5004816;28;20097;-87
2022/01/05 08:36:18;;;;;;;21.23;2.10;;;3.80;99.90;;;;;;5002939;28;20399;-86
2022/01/05 08:38:47;;;;;;;17.77;2.20;;;3.80;99.90;;;;;;4992324;28;20456;-89
2022/01/05 08:41:12;;;;;;;20.42;1.92;;;3.90;99.90;;;;;;5013638;28;20507;-86
2022/01/05 08:43:38;;;;;;;22.42;2.30;;;3.90;99.90;;;;;;5012226;28;20041;-88
2022/01/05 08:46:04;;;;;;;21.63;2.15;;;3.90;99.90;;;;;;5015427;28;20496;-88
2022/01/05 08:48:39;;;;;;;15.27;1.40;;;4.00;99.90;;;;;;5011550;28;20082;-89
2022/01/05 08:51:05;;;;;;;29.92;2.15;;;4.10;99.90;;;;;;5003880;28;20147;-88
2022/01/05 08:53:34;;;;;;;23.23;1.73;;;4.10;99.90;;;;;;5003988;28;20348;-89
2022/01/05 08:56:23;;;;;;;15.35;1.65;;;4.20;99.90;;;;;;4999634;28;20049;-89
2022/01/05 08:58:50;;;;;;;23.50;2.83;;;4.30;99.90;;;;;;5024911;28;20045;-86
2022/01/05 09:01:16;;;;;;;22.95;2.30;;;4.30;99.90;;;;;;4997875;28;20094;-87
2022/01/05 09:03:45;;;;;;;16.17;1.88;;;4.40;99.90;;;;;;5024583;28;20444;-85
2022/01/05 09:06:20;;;;;;;29.50;2.38;;;4.50;99.90;;;;;;5009134;28;20148;-86
2022/01/05 09:08:46;;;;;;;26.30;2.35;;;4.50;99.90;;;;;;5022964;28;20350;-86
2022/01/05 09:11:12;;;;;;;22.48;1.83;;;4.50;99.90;;;;;;5007762;28;21306;-86
2022/01/05 09:13:44;;;;;;;24.58;2.65;;;4.60;99.90;;;;;;5009801;28;20041;-84
2022/01/05 09:16:13;;;;;;;25.25;2.22;;;4.70;99.90;;;;;;5008301;28;20083;-87
2022/01/05 09:18:54;;;;;;;30.63;3.38;;;4.70;99.90;;;;;;5020630;28;20764;-85
2022/01/05 09:21:23;;;;;;;22.65;2.15;;;4.90;99.90;;;;;;4998693;28;20110;-89
2022/01/05 09:23:58;;;;;;;29.98;2.40;;;5.00;99.90;;;;;;5006553;28;21283;-87
2022/01/05 09:26:24;;;;;;;19.83;2.28;;;5.00;99.90;;;;;;5014725;28;20440;-86
2022/01/05 09:28:50;;;;;;;19.55;2.00;;;5.00;99.90;;;;;;5022139;28;20188;-87
2022/01/05 09:31:27;;;;;;;21.52;2.08;;;5.00;99.90;;;;;;5019455;28;20507;-86
2022/01/05 09:33:56;;;;;;;27.25;2.17;;;5.00;99.90;;;;;;5016595;28;20041;-85
2022/01/05 09:36:44;;;;;;;18.10;1.77;;;5.00;99.90;;;;;;5018175;28;20049;-90
2022/01/05 09:41:57;;;;;;;22.13;2.20;;;4.80;99.90;;;;;;5011208;28;20041;-86
2022/01/05 09:44:33;;;;;;;31.80;1.85;;;4.70;99.90;;;;;;5011637;28;20041;-87
2022/01/05 09:46:59;;;;;;;24.92;2.42;;;4.70;99.90;;;;;;5000305;28;20492;-87
2022/01/05 09:49:37;;;;;;;15.63;1.80;;;4.70;99.90;;;;;;5016766;28;20506;-87
2022/01/05 09:52:08;;;;;;;25.20;2.97;;;4.80;99.90;;;;;;5023072;28;20053;-86
2022/01/05 09:54:47;;;;;;;20.35;1.83;;;4.80;99.90;;;;;;5010900;28;20052;-85
2022/01/05 09:57:18;;;;;;;24.23;2.40;;;4.80;99.90;;;;;;4989588;28;20140;-85
2022/01/05 09:59:48;;;;;;;15.57;1.83;;;4.90;99.90;;;;;;5011405;28;20051;-85
2022/01/05 10:02:20;;;;;;;22.13;2.47;;;5.00;99.90;;;;;;5007380;28;20038;-86
2022/01/05 10:04:49;;;;;;;29.52;2.83;;;5.20;99.90;;;;;;5011777;28;20060;-85
2022/01/05 10:08:17;;;;;;;25.70;2.53;;;5.30;99.90;;;;;;5007820;28;20451;-87
2022/01/05 10:10:45;;;;;;;25.02;2.35;;;5.40;99.90;;;;;;5008658;28;20447;-85
2022/01/05 10:13:24;;;;;;;23.58;2.85;;;5.40;99.90;;;;;;4997893;28;20049;-87
2022/01/05 10:15:56;;;;;;;27.38;2.67;;;5.40;99.90;;;;;;5008482;23;20046;-88
2022/01/05 10:18:49;;;;;;;35.75;3.38;;;5.50;99.90;;;;;;4960700;28;20041;-87
2022/01/05 10:21:18;;;;;;;35.92;3.05;;;5.50;99.90;;;;;;4975755;28;20067;-85
2022/01/05 10:23:53;;;;;;;27.05;3.58;;;5.50;99.90;;;;;;4964568;28;20480;-86
2022/01/05 10:26:42;;;;;;;31.65;3.50;;;5.60;99.90;;;;;;4960134;28;20069;-86
2022/01/05 10:29:17;;;;;;;40.47;3.80;;;5.80;99.90;;;;;;4980140;28;20065;-86
2022/01/05 10:31:56;;;;;;;32.22;4.32;;;5.90;99.90;;;;;;4970440;28;20125;-88
2022/01/05 10:34:28;;;;;;;32.78;3.65;;;5.90;99.90;;;;;;4954984;28;20466;-86
2022/01/05 10:37:00;;;;;;;37.63;3.80;;;5.90;99.90;;;;;;4977712;28;20138;-86
2022/01/05 10:39:29;;;;;;;34.80;4.33;;;5.90;99.90;;;;;;4953080;28;20046;-86
2022/01/05 10:41:55;;;;;;;40.70;4.28;;;5.90;99.90;;;;;;4976550;28;20038;-87
2022/01/05 10:44:24;;;;;;;28.83;4.07;;;5.90;99.90;;;;;;4939732;28;20038;-84
2022/01/05 10:46:56;;;;;;;34.08;3.80;;;5.90;99.90;;;;;;4950161;28;20053;-87
2022/01/05 10:49:41;;;;;;;34.80;3.60;;;6.00;99.90;;;;;;4960976;28;20125;-84
2022/01/05 10:52:27;;;;;;;30.88;3.38;;;6.00;99.90;;;;;;4951363;28;20066;-86
2022/01/05 10:54:54;;;;;;;24.90;3.75;;;6.10;99.90;;;;;;4973013;28;20038;-85
2022/01/05 10:57:20;;;;;;;29.23;2.90;;;6.10;99.90;;;;;;4955376;28;20042;-85
2022/01/05 10:59:53;;;;;;;26.38;4.05;;;6.20;99.90;;;;;;4954829;28;20053;-85
2022/01/05 11:02:30;;;;;;;;;;;6.20;99.90;;;;;;4932885;28;20038;-87
2022/01/05 11:05:08;;;;;;;28.90;3.17;;;6.20;99.90;;;;;;4970897;28;20019;-86
2022/01/05 11:07:39;;;;;;;27.75;3.38;;;6.20;99.90;;;;;;4962625;28;20042;-84
2022/01/05 11:10:09;;;;;;;34.65;3.40;;;6.30;99.90;;;;;;4966732;28;20170;-87
2022/01/05 11:12:49;;;;;;;24.27;4.07;;;6.40;99.90;;;;;;4966592;23;20463;-82
2022/01/05 11:15:31;;;;;;;30.08;4.82;;;6.40;99.90;;;;;;4968354;28;20396;-84
2022/01/05 11:18:15;;;;;;;32.05;3.25;;;6.40;99.90;;;;;;4954931;28;20034;-86
2022/01/05 11:20:51;;;;;;;27.17;3.28;;;6.40;99.90;;;;;;4952334;28;20162;-85
2022/01/05 11:23:24;;;;;;;25.70;3.58;;;6.40;99.90;;;;;;4952477;28;20551;-87
2022/01/05 11:25:51;;;;;;;32.10;3.13;;;6.40;99.90;;;;;;4953879;28;20243;-86
2022/01/05 11:28:22;;;;;;;26.80;3.95;;;6.50;99.90;;;;;;4971668;28;20505;-88
2022/01/05 11:30:54;;;;;;;28.70;3.40;;;6.50;99.90;;;;;;4969461;28;20052;-87
2022/01/05 11:33:24;;;;;;;19.70;3.00;;;6.60;99.90;;;;;;4955313;28;20085;-87
2022/01/05 11:36:02;;;;;;;27.17;3.88;;;6.70;99.90;;;;;;4987512;28;20124;-88
2022/01/05 11:38:31;;;;;;;31.58;3.53;;;6.70;99.90;;;;;;4929204;28;20129;-85
2022/01/05 11:40:59;;;;;;;28.08;3.80;;;6.80;99.90;;;;;;4964932;28;20042;-85
2022/01/05 11:43:32;;;;;;;33.85;3.53;;;6.80;99.90;;;;;;4963070;28;20493;-83
2022/01/05 11:46:18;;;;;;;29.58;4.00;;;6.90;99.90;;;;;;4970709;28;21684;-84
2022/01/05 11:49:07;;;;;;;25.08;3.30;;;6.90;99.90;;;;;;4966769;28;20035;-85
2022/01/05 11:51:42;;;;;;;23.33;3.08;;;7.00;99.90;;;;;;4967767;28;20201;-89
2022/01/05 11:54:20;;;;;;;30.27;4.00;;;7.00;99.90;;;;;;4960636;28;20042;-84
2022/01/05 11:56:49;;;;;;;15.68;2.22;;;7.00;99.90;;;;;;4968032;28;20038;-84
2022/01/05 11:59:38;;;;;;;19.33;2.65;;;7.00;99.90;;;;;;4950151;28;20042;-85
2022/01/05 12:02:14;;;;;;;19.35;2.33;;;7.10;99.90;;;;;;4967196;28;20716;-85
2022/01/05 12:05:12;;;;;;;22.75;2.85;;;7.20;99.90;;;;;;4952414;28;20523;-88
2022/01/05 12:07:40;;;;;;;29.40;2.80;;;7.30;99.90;;;;;;4920867;28;20054;-86
2022/01/05 12:10:28;;;;;;;19.70;2.88;;;7.40;99.90;;;;;;4969080;28;20038;-86
2022/01/05 12:12:55;;;;;;;27.38;2.85;;;7.50;99.90;;;;;;4957449;28;20510;-84
2022/01/05 12:15:43;;;;;;;22.80;3.03;;;7.60;99.90;;;;;;4957551;28;20054;-86
2022/01/05 12:18:20;;;;;;;22.40;2.67;;;7.70;99.90;;;;;;4968741;28;20516;-85
2022/01/05 12:20:46;;;;;;;22.85;2.97;;;7.70;99.90;;;;;;4955732;28;20106;-87
2022/01/05 12:23:20;;;;;;;13.85;2.42;;;7.80;99.90;;;;;;4948199;28;20574;-88
2022/01/05 12:26:05;;;;;;;21.90;2.70;;;8.00;99.90;;;;;;4966324;28;20073;-83
2022/01/05 12:28:52;;;;;;;27.17;2.50;;;8.10;99.90;;;;;;4969627;28;20223;-84
2022/01/05 12:31:18;;;;;;;16.20;2.30;;;8.20;99.90;;;;;;4965127;28;20042;-83
2022/01/05 12:33:50;;;;;;;15.68;2.13;;;8.20;99.90;;;;;;4948750;28;20103;-84
2022/01/05 12:36:32;;;;;;;19.17;2.72;;;8.20;99.90;;;;;;4966064;28;20070;-82
2022/01/05 12:38:58;;;;;;;16.23;2.47;;;8.00;99.90;;;;;;4966047;28;20050;-83
2022/01/05 12:41:30;;;;;;;19.20;2.10;;;8.00;99.90;;;;;;4936841;28;20978;-81
2022/01/05 12:43:58;;;;;;;18.13;2.55;;;8.00;99.90;;;;;;4956544;28;20049;-82
2022/01/05 12:46:42;;;;;;;21.08;3.53;;;8.10;99.90;;;;;;4930186;28;20041;-83
2022/01/05 12:49:29;;;;;;;19.98;3.20;;;8.20;99.90;;;;;;4977247;28;20403;-85
2022/01/05 12:52:09;;;;;;;18.75;2.80;;;8.10;99.90;;;;;;4984017;28;20046;-84
2022/01/05 12:54:41;;;;;;;18.55;2.72;;;8.00;99.90;;;;;;4980348;28;20038;-85
2022/01/05 12:57:26;;;;;;;23.83;2.53;;;7.90;99.90;;;;;;4963238;28;20050;-85
2022/01/05 12:59:53;;;;;;;18.75;3.20;;;7.80;99.90;;;;;;4961213;28;20045;-86
2022/01/05 13:02:27;;;;;;;22.50;2.50;;;7.60;99.90;;;;;;4976168;28;20378;-85